sensor_id;sensor_type;location;lat;lon;timestamp;pressure;altitude;pressure_sealevel;temperature
20289;BMP180;10303;51.960;8.372;2023-02-15T00:01:41;101834.00;;;6.80
20289;BMP180;10303;51.960;8.372;2023-02-15T00:04:09;101825.00;;;6.70
20289;BMP180;10303;51.960;8.372;2023-02-15T00:06:37;101834.00;;;6.70
20289;BMP180;10303;51.960;8.372;2023-02-15T00:09:03;101827.00;;;6.70
20289;BMP180;10303;51.960;8.372;2023-02-15T00:11:29;101823.00;;;6.70
20289;BMP180;10303;51.960;8.372;2023-02-15T00:14:19;101825.00;;;6.70
20289;BMP180;10303;51.960;8.372;2023-02-15T00:16:46;101824.00;;;6.70
20289;BMP180;10303;51.960;8.372;2023-02-15T00:19:16;101815.00;;;6.60
20289;BMP180;10303;51.960;8.372;2023-02-15T00:21:42;101810.00;;;6.60
20289;BMP180;10303;51.960;8.372;2023-02-15T00:24:12;101820.00;;;6.60
20289;BMP180;10303;51.960;8.372;2023-02-15T00:26:40;101808.00;;;6.50
20289;BMP180;10303;51.960;8.372;2023-02-15T00:29:07;101820.00;;;6.50
20289;BMP180;10303;51.960;8.372;2023-02-15T00:31:34;101814.00;;;6.50
20289;BMP180;10303;51.960;8.372;2023-02-15T00:34:06;101805.00;;;6.40
20289;BMP180;10303;51.960;8.372;2023-02-15T00:36:33;101796.00;;;6.40
20289;BMP180;10303;51.960;8.372;2023-02-15T00:38:59;101791.00;;;6.40
20289;BMP180;10303;51.960;8.372;2023-02-15T00:41:25;101796.00;;;6.40
20289;BMP180;10303;51.960;8.372;2023-02-15T00:43:51;101798.00;;;6.30
20289;BMP180;10303;51.960;8.372;2023-02-15T00:46:17;101799.00;;;6.30
20289;BMP180;10303;51.960;8.372;2023-02-15T00:48:43;101796.00;;;6.20
20289;BMP180;10303;51.960;8.372;2023-02-15T00:51:09;101787.00;;;6.20
20289;BMP180;10303;51.960;8.372;2023-02-15T00:53:34;101799.00;;;6.20
20289;BMP180;10303;51.960;8.372;2023-02-15T00:56:00;101799.00;;;6.10
20289;BMP180;10303;51.960;8.372;2023-02-15T00:58:26;101799.00;;;6.10
20289;BMP180;10303;51.960;8.372;2023-02-15T01:00:52;101798.00;;;6.10
20289;BMP180;10303;51.960;8.372;2023-02-15T01:03:20;101796.00;;;6.00
20289;BMP180;10303;51.960;8.372;2023-02-15T01:05:48;101798.00;;;6.00
20289;BMP180;10303;51.960;8.372;2023-02-15T01:08:15;101798.00;;;6.00
20289;BMP180;10303;51.960;8.372;2023-02-15T01:10:41;101790.00;;;5.90
20289;BMP180;10303;51.960;8.372;2023-02-15T01:13:09;101794.00;;;5.90
20289;BMP180;10303;51.960;8.372;2023-02-15T01:15:35;101785.00;;;5.90
20289;BMP180;10303;51.960;8.372;2023-02-15T01:18:02;101781.00;;;5.90
20289;BMP180;10303;51.960;8.372;2023-02-15T01:20:29;101780.00;;;5.90
20289;BMP180;10303;51.960;8.372;2023-02-15T01:22:57;101772.00;;;5.90
20289;BMP180;10303;51.960;8.372;2023-02-15T01:25:24;101774.00;;;5.80
20289;BMP180;10303;51.960;8.372;2023-02-15T01:27:50;101770.00;;;5.80
20289;BMP180;10303;51.960;8.372;2023-02-15T01:30:17;101768.00;;;5.80
20289;BMP180;10303;51.960;8.372;2023-02-15T01:32:43;101765.00;;;5.70
20289;BMP180;10303;51.960;8.372;2023-02-15T01:35:10;101764.00;;;5.70
20289;BMP180;10303;51.960;8.372;2023-02-15T01:37:36;101771.00;;;5.60
20289;BMP180;10303;51.960;8.372;2023-02-15T01:40:08;101761.00;;;5.60
20289;BMP180;10303;51.960;8.372;2023-02-15T01:42:34;101754.00;;;5.60
20289;BMP180;10303;51.960;8.372;2023-02-15T01:45:19;101758.00;;;5.50
20289;BMP180;10303;51.960;8.372;2023-02-15T01:48:00;101759.00;;;5.40
20289;BMP180;10303;51.960;8.372;2023-02-15T01:50:40;101757.00;;;5.40
20289;BMP180;10303;51.960;8.372;2023-02-15T01:56:00;101763.00;;;5.40
20289;BMP180;10303;51.960;8.372;2023-02-15T01:58:29;101756.00;;;5.30
20289;BMP180;10303;51.960;8.372;2023-02-15T02:00:57;101752.00;;;5.30
20289;BMP180;10303;51.960;8.372;2023-02-15T02:04:09;101757.00;;;5.30
20289;BMP180;10303;51.960;8.372;2023-02-15T02:06:38;101746.00;;;5.30
20289;BMP180;10303;51.960;8.372;2023-02-15T02:09:05;101750.00;;;5.30
20289;BMP180;10303;51.960;8.372;2023-02-15T02:11:33;101753.00;;;5.20
20289;BMP180;10303;51.960;8.372;2023-02-15T02:14:00;101750.00;;;5.20
20289;BMP180;10303;51.960;8.372;2023-02-15T02:20:05;101746.00;;;5.10
20289;BMP180;10303;51.960;8.372;2023-02-15T02:25:51;101733.00;;;5.10
20289;BMP180;10303;51.960;8.372;2023-02-15T02:31:40;101734.00;;;5.00
20289;BMP180;10303;51.960;8.372;2023-02-15T02:40:13;101721.00;;;5.00
20289;BMP180;10303;51.960;8.372;2023-02-15T02:42:46;101715.00;;;5.00
20289;BMP180;10303;51.960;8.372;2023-02-15T02:45:25;101700.00;;;4.90
20289;BMP180;10303;51.960;8.372;2023-02-15T02:47:56;101707.00;;;4.90
20289;BMP180;10303;51.960;8.372;2023-02-15T02:50:28;101699.00;;;4.90
20289;BMP180;10303;51.960;8.372;2023-02-15T02:52:58;101699.00;;;4.90
20289;BMP180;10303;51.960;8.372;2023-02-15T02:55:49;101692.00;;;4.90
20289;BMP180;10303;51.960;8.372;2023-02-15T02:59:06;101687.00;;;4.80
20289;BMP180;10303;51.960;8.372;2023-02-15T03:01:40;101697.00;;;4.80
20289;BMP180;10303;51.960;8.372;2023-02-15T03:04:20;101711.00;;;4.80
20289;BMP180;10303;51.960;8.372;2023-02-15T03:07:00;101708.00;;;4.80
20289;BMP180;10303;51.960;8.372;2023-02-15T03:09:34;101696.00;;;4.70
20289;BMP180;10303;51.960;8.372;2023-02-15T03:12:18;101702.00;;;4.70
20289;BMP180;10303;51.960;8.372;2023-02-15T03:14:51;101707.00;;;4.70
20289;BMP180;10303;51.960;8.372;2023-02-15T03:17:21;101697.00;;;4.70
20289;BMP180;10303;51.960;8.372;2023-02-15T03:19:51;101693.00;;;4.70
20289;BMP180;10303;51.960;8.372;2023-02-15T03:22:27;101685.00;;;4.60
20289;BMP180;10303;51.960;8.372;2023-02-15T03:25:08;101690.00;;;4.60
20289;BMP180;10303;51.960;8.372;2023-02-15T03:27:45;101691.00;;;4.60
20289;BMP180;10303;51.960;8.372;2023-02-15T03:30:13;101686.00;;;4.60
20289;BMP180;10303;51.960;8.372;2023-02-15T03:32:42;101680.00;;;4.60
20289;BMP180;10303;51.960;8.372;2023-02-15T03:35:10;101682.00;;;4.60
20289;BMP180;10303;51.960;8.372;2023-02-15T03:37:51;101689.00;;;4.50
20289;BMP180;10303;51.960;8.372;2023-02-15T03:40:32;101685.00;;;4.50
20289;BMP180;10303;51.960;8.372;2023-02-15T03:43:43;101684.00;;;4.50
20289;BMP180;10303;51.960;8.372;2023-02-15T03:46:28;101679.00;;;4.50
20289;BMP180;10303;51.960;8.372;2023-02-15T03:49:02;101678.00;;;4.50
20289;BMP180;10303;51.960;8.372;2023-02-15T03:51:34;101675.00;;;4.50
20289;BMP180;10303;51.960;8.372;2023-02-15T03:54:14;101669.00;;;4.40
20289;BMP180;10303;51.960;8.372;2023-02-15T03:57:01;101659.00;;;4.40
20289;BMP180;10303;51.960;8.372;2023-02-15T03:59:46;101662.00;;;4.40
20289;BMP180;10303;51.960;8.372;2023-02-15T04:05:11;101665.00;;;4.30
20289;BMP180;10303;51.960;8.372;2023-02-15T04:07:36;101664.00;;;4.30
20289;BMP180;10303;51.960;8.372;2023-02-15T04:10:03;101664.00;;;4.30
20289;BMP180;10303;51.960;8.372;2023-02-15T04:12:47;101656.00;;;4.30
20289;BMP180;10303;51.960;8.372;2023-02-15T04:15:13;101655.00;;;4.30
20289;BMP180;10303;51.960;8.372;2023-02-15T04:17:57;101653.00;;;4.30
20289;BMP180;10303;51.960;8.372;2023-02-15T04:20:23;101653.00;;;4.30
20289;BMP180;10303;51.960;8.372;2023-02-15T04:23:07;101652.00;;;4.20
20289;BMP180;10303;51.960;8.372;2023-02-15T04:25:52;101660.00;;;4.20
20289;BMP180;10303;51.960;8.372;2023-02-15T04:28:18;101657.00;;;4.20
20289;BMP180;10303;51.960;8.372;2023-02-15T04:30:44;101654.00;;;4.20
20289;BMP180;10303;51.960;8.372;2023-02-15T04:33:10;101648.00;;;4.20
20289;BMP180;10303;51.960;8.372;2023-02-15T04:35:36;101639.00;;;4.20
20289;BMP180;10303;51.960;8.372;2023-02-15T04:38:01;101641.00;;;4.20
20289;BMP180;10303;51.960;8.372;2023-02-15T04:40:28;101644.00;;;4.20
20289;BMP180;10303;51.960;8.372;2023-02-15T04:42:54;101643.00;;;4.30
20289;BMP180;10303;51.960;8.372;2023-02-15T04:45:20;101645.00;;;4.30
20289;BMP180;10303;51.960;8.372;2023-02-15T04:47:46;101636.00;;;4.20
20289;BMP180;10303;51.960;8.372;2023-02-15T04:50:12;101648.00;;;4.20
20289;BMP180;10303;51.960;8.372;2023-02-15T04:52:38;101635.00;;;4.20
20289;BMP180;10303;51.960;8.372;2023-02-15T04:55:04;101634.00;;;4.20
20289;BMP180;10303;51.960;8.372;2023-02-15T04:57:30;101629.00;;;4.20
20289;BMP180;10303;51.960;8.372;2023-02-15T04:59:56;101644.00;;;4.20
20289;BMP180;10303;51.960;8.372;2023-02-15T05:02:23;101642.00;;;4.10
20289;BMP180;10303;51.960;8.372;2023-02-15T05:04:49;101641.00;;;4.10
20289;BMP180;10303;51.960;8.372;2023-02-15T05:07:16;101650.00;;;4.10
20289;BMP180;10303;51.960;8.372;2023-02-15T05:09:42;101637.00;;;4.10
20289;BMP180;10303;51.960;8.372;2023-02-15T05:12:08;101630.00;;;4.10
20289;BMP180;10303;51.960;8.372;2023-02-15T05:14:34;101620.00;;;4.10
20289;BMP180;10303;51.960;8.372;2023-02-15T05:17:00;101628.00;;;4.10
20289;BMP180;10303;51.960;8.372;2023-02-15T05:19:27;101635.00;;;4.10
20289;BMP180;10303;51.960;8.372;2023-02-15T05:21:53;101639.00;;;4.00
20289;BMP180;10303;51.960;8.372;2023-02-15T05:24:19;101625.00;;;4.00
20289;BMP180;10303;51.960;8.372;2023-02-15T05:27:04;101620.00;;;4.00
20289;BMP180;10303;51.960;8.372;2023-02-15T05:29:49;101630.00;;;4.00
20289;BMP180;10303;51.960;8.372;2023-02-15T05:32:14;101619.00;;;4.00
20289;BMP180;10303;51.960;8.372;2023-02-15T05:34:40;101616.00;;;3.90
20289;BMP180;10303;51.960;8.372;2023-02-15T05:37:06;101628.00;;;3.90
20289;BMP180;10303;51.960;8.372;2023-02-15T05:39:33;101626.00;;;3.90
20289;BMP180;10303;51.960;8.372;2023-02-15T05:42:00;101627.00;;;3.90
20289;BMP180;10303;51.960;8.372;2023-02-15T05:44:26;101619.00;;;3.90
20289;BMP180;10303;51.960;8.372;2023-02-15T05:46:51;101612.00;;;3.90
20289;BMP180;10303;51.960;8.372;2023-02-15T05:49:17;101620.00;;;3.80
20289;BMP180;10303;51.960;8.372;2023-02-15T05:51:43;101613.00;;;3.80
20289;BMP180;10303;51.960;8.372;2023-02-15T05:54:09;101603.00;;;3.80
20289;BMP180;10303;51.960;8.372;2023-02-15T05:56:35;101602.00;;;3.80
20289;BMP180;10303;51.960;8.372;2023-02-15T05:59:01;101601.00;;;3.80
20289;BMP180;10303;51.960;8.372;2023-02-15T06:01:27;101604.00;;;3.70
20289;BMP180;10303;51.960;8.372;2023-02-15T06:03:53;101604.00;;;3.70
20289;BMP180;10303;51.960;8.372;2023-02-15T06:06:21;101613.00;;;3.70
20289;BMP180;10303;51.960;8.372;2023-02-15T06:08:48;101612.00;;;3.70
20289;BMP180;10303;51.960;8.372;2023-02-15T06:11:14;101616.00;;;3.70
20289;BMP180;10303;51.960;8.372;2023-02-15T06:13:40;101612.00;;;3.70
20289;BMP180;10303;51.960;8.372;2023-02-15T06:16:06;101614.00;;;3.60
20289;BMP180;10303;51.960;8.372;2023-02-15T06:18:33;101607.00;;;3.60
20289;BMP180;10303;51.960;8.372;2023-02-15T06:20:58;101617.00;;;3.60
20289;BMP180;10303;51.960;8.372;2023-02-15T06:23:24;101605.00;;;3.60
20289;BMP180;10303;51.960;8.372;2023-02-15T06:25:50;101615.00;;;3.60
20289;BMP180;10303;51.960;8.372;2023-02-15T06:28:16;101613.00;;;3.50
20289;BMP180;10303;51.960;8.372;2023-02-15T06:30:42;101605.00;;;3.50
20289;BMP180;10303;51.960;8.372;2023-02-15T06:33:08;101612.00;;;3.50
20289;BMP180;10303;51.960;8.372;2023-02-15T06:35:34;101614.00;;;3.50
20289;BMP180;10303;51.960;8.372;2023-02-15T06:38:00;101617.00;;;3.50
20289;BMP180;10303;51.960;8.372;2023-02-15T06:40:26;101613.00;;;3.50
20289;BMP180;10303;51.960;8.372;2023-02-15T06:42:52;101609.00;;;3.50
20289;BMP180;10303;51.960;8.372;2023-02-15T06:45:18;101616.00;;;3.50
20289;BMP180;10303;51.960;8.372;2023-02-15T06:47:44;101604.00;;;3.50
20289;BMP180;10303;51.960;8.372;2023-02-15T06:50:12;101612.00;;;3.50
20289;BMP180;10303;51.960;8.372;2023-02-15T06:52:38;101613.00;;;3.50
20289;BMP180;10303;51.960;8.372;2023-02-15T06:55:04;101603.00;;;3.50
20289;BMP180;10303;51.960;8.372;2023-02-15T06:57:30;101612.00;;;3.50
20289;BMP180;10303;51.960;8.372;2023-02-15T06:59:56;101605.00;;;3.40
20289;BMP180;10303;51.960;8.372;2023-02-15T07:02:24;101616.00;;;3.40
20289;BMP180;10303;51.960;8.372;2023-02-15T07:04:49;101605.00;;;3.40
20289;BMP180;10303;51.960;8.372;2023-02-15T07:07:15;101600.00;;;3.40
20289;BMP180;10303;51.960;8.372;2023-02-15T07:09:41;101605.00;;;3.40
20289;BMP180;10303;51.960;8.372;2023-02-15T07:12:09;101613.00;;;3.40
20289;BMP180;10303;51.960;8.372;2023-02-15T07:14:53;101615.00;;;3.40
20289;BMP180;10303;51.960;8.372;2023-02-15T07:17:19;101613.00;;;3.40
20289;BMP180;10303;51.960;8.372;2023-02-15T07:19:45;101619.00;;;3.40
20289;BMP180;10303;51.960;8.372;2023-02-15T07:22:11;101618.00;;;3.40
20289;BMP180;10303;51.960;8.372;2023-02-15T07:24:37;101602.00;;;3.50
20289;BMP180;10303;51.960;8.372;2023-02-15T07:27:03;101621.00;;;3.50
20289;BMP180;10303;51.960;8.372;2023-02-15T07:29:29;101620.00;;;3.50
20289;BMP180;10303;51.960;8.372;2023-02-15T07:31:55;101608.00;;;3.50
20289;BMP180;10303;51.960;8.372;2023-02-15T07:34:21;101603.00;;;3.50
20289;BMP180;10303;51.960;8.372;2023-02-15T07:36:47;101594.00;;;3.50
20289;BMP180;10303;51.960;8.372;2023-02-15T07:39:12;101599.00;;;3.60
20289;BMP180;10303;51.960;8.372;2023-02-15T07:41:38;101601.00;;;3.60
20289;BMP180;10303;51.960;8.372;2023-02-15T07:44:14;101600.00;;;3.60
20289;BMP180;10303;51.960;8.372;2023-02-15T07:46:41;101595.00;;;3.70
20289;BMP180;10303;51.960;8.372;2023-02-15T07:49:07;101601.00;;;3.70
20289;BMP180;10303;51.960;8.372;2023-02-15T07:51:33;101603.00;;;3.80
20289;BMP180;10303;51.960;8.372;2023-02-15T07:53:59;101591.00;;;3.80
20289;BMP180;10303;51.960;8.372;2023-02-15T07:56:25;101598.00;;;3.90
20289;BMP180;10303;51.960;8.372;2023-02-15T07:58:51;101592.00;;;3.90
20289;BMP180;10303;51.960;8.372;2023-02-15T08:01:29;101594.00;;;3.90
20289;BMP180;10303;51.960;8.372;2023-02-15T08:03:56;101593.00;;;4.00
20289;BMP180;10303;51.960;8.372;2023-02-15T08:06:26;101588.00;;;4.00
20289;BMP180;10303;51.960;8.372;2023-02-15T08:08:52;101581.00;;;4.10
20289;BMP180;10303;51.960;8.372;2023-02-15T08:11:23;101560.00;;;4.10
20289;BMP180;10303;51.960;8.372;2023-02-15T08:14:09;101579.00;;;4.20
20289;BMP180;10303;51.960;8.372;2023-02-15T08:16:49;101556.00;;;4.30
20289;BMP180;10303;51.960;8.372;2023-02-15T08:19:20;101570.00;;;4.40
20289;BMP180;10303;51.960;8.372;2023-02-15T08:21:52;101561.00;;;4.40
20289;BMP180;10303;51.960;8.372;2023-02-15T08:24:22;101563.00;;;4.50
20289;BMP180;10303;51.960;8.372;2023-02-15T08:26:49;101551.00;;;4.60
20289;BMP180;10303;51.960;8.372;2023-02-15T08:29:19;101553.00;;;4.70
20289;BMP180;10303;51.960;8.372;2023-02-15T08:31:46;101556.00;;;4.70
20289;BMP180;10303;51.960;8.372;2023-02-15T08:34:16;101546.00;;;4.80
20289;BMP180;10303;51.960;8.372;2023-02-15T08:36:43;101555.00;;;4.90
20289;BMP180;10303;51.960;8.372;2023-02-15T08:39:14;101556.00;;;5.00
20289;BMP180;10303;51.960;8.372;2023-02-15T08:41:46;101551.00;;;5.00
20289;BMP180;10303;51.960;8.372;2023-02-15T08:44:14;101565.00;;;5.10
20289;BMP180;10303;51.960;8.372;2023-02-15T08:46:44;101558.00;;;5.20
20289;BMP180;10303;51.960;8.372;2023-02-15T08:49:16;101551.00;;;5.20
20289;BMP180;10303;51.960;8.372;2023-02-15T08:51:42;101562.00;;;5.30
20289;BMP180;10303;51.960;8.372;2023-02-15T08:54:14;101551.00;;;5.40
20289;BMP180;10303;51.960;8.372;2023-02-15T08:56:43;101547.00;;;5.50
20289;BMP180;10303;51.960;8.372;2023-02-15T08:59:16;101556.00;;;5.50
20289;BMP180;10303;51.960;8.372;2023-02-15T09:01:43;101561.00;;;5.60
20289;BMP180;10303;51.960;8.372;2023-02-15T09:04:10;101551.00;;;5.70
20289;BMP180;10303;51.960;8.372;2023-02-15T09:06:40;101555.00;;;5.90
20289;BMP180;10303;51.960;8.372;2023-02-15T09:09:07;101546.00;;;6.10
20289;BMP180;10303;51.960;8.372;2023-02-15T09:11:38;101548.00;;;6.50
20289;BMP180;10303;51.960;8.372;2023-02-15T09:14:08;101547.00;;;6.90
20289;BMP180;10303;51.960;8.372;2023-02-15T09:16:37;101539.00;;;7.40
20289;BMP180;10303;51.960;8.372;2023-02-15T09:19:04;101540.00;;;7.80
20289;BMP180;10303;51.960;8.372;2023-02-15T09:21:32;101538.00;;;8.10
20289;BMP180;10303;51.960;8.372;2023-02-15T09:24:02;101540.00;;;8.60
20289;BMP180;10303;51.960;8.372;2023-02-15T09:26:30;101525.00;;;9.10
20289;BMP180;10303;51.960;8.372;2023-02-15T09:29:00;101529.00;;;9.50
20289;BMP180;10303;51.960;8.372;2023-02-15T09:31:30;101530.00;;;10.00
20289;BMP180;10303;51.960;8.372;2023-02-15T09:33:58;101527.00;;;10.40
20289;BMP180;10303;51.960;8.372;2023-02-15T09:36:33;101545.00;;;10.80
20289;BMP180;10303;51.960;8.372;2023-02-15T09:39:20;101536.00;;;11.10
20289;BMP180;10303;51.960;8.372;2023-02-15T10:10:22;101539.00;;;14.80
20289;BMP180;10303;51.960;8.372;2023-02-15T10:13:07;101539.00;;;15.10
20289;BMP180;10303;51.960;8.372;2023-02-15T10:18:48;101546.00;;;15.70
20289;BMP180;10303;51.960;8.372;2023-02-15T10:27:51;101538.00;;;16.60
20289;BMP180;10303;51.960;8.372;2023-02-15T10:30:29;101543.00;;;16.70
20289;BMP180;10303;51.960;8.372;2023-02-15T10:33:02;101532.00;;;16.80
20289;BMP180;10303;51.960;8.372;2023-02-15T10:38:42;101534.00;;;16.70
20289;BMP180;10303;51.960;8.372;2023-02-15T10:41:44;101527.00;;;16.60
20289;BMP180;10303;51.960;8.372;2023-02-15T10:50:59;101508.00;;;16.50
20289;BMP180;10303;51.960;8.372;2023-02-15T10:53:54;101526.00;;;16.50
20289;BMP180;10303;51.960;8.372;2023-02-15T11:07:44;101517.00;;;17.10
20289;BMP180;10303;51.960;8.372;2023-02-15T11:10:39;101517.00;;;17.40
20289;BMP180;10303;51.960;8.372;2023-02-15T11:13:20;101514.00;;;17.60
20289;BMP180;10303;51.960;8.372;2023-02-15T11:16:00;101516.00;;;17.90
20289;BMP180;10303;51.960;8.372;2023-02-15T11:18:44;101527.00;;;18.20
20289;BMP180;10303;51.960;8.372;2023-02-15T11:21:29;101521.00;;;18.50
20289;BMP180;10303;51.960;8.372;2023-02-15T11:24:00;101522.00;;;18.90
20289;BMP180;10303;51.960;8.372;2023-02-15T11:26:46;101517.00;;;19.20
20289;BMP180;10303;51.960;8.372;2023-02-15T11:29:25;101519.00;;;19.50
20289;BMP180;10303;51.960;8.372;2023-02-15T11:31:59;101515.00;;;19.70
20289;BMP180;10303;51.960;8.372;2023-02-15T11:34:35;101506.00;;;20.00
20289;BMP180;10303;51.960;8.372;2023-02-15T11:37:12;101506.00;;;20.20
20289;BMP180;10303;51.960;8.372;2023-02-15T11:39:41;101504.00;;;20.50
20289;BMP180;10303;51.960;8.372;2023-02-15T11:42:16;101507.00;;;20.70
20289;BMP180;10303;51.960;8.372;2023-02-15T11:47:23;101498.00;;;21.10
20289;BMP180;10303;51.960;8.372;2023-02-15T11:49:49;101501.00;;;21.30
20289;BMP180;10303;51.960;8.372;2023-02-15T11:52:17;101495.00;;;21.50
20289;BMP180;10303;51.960;8.372;2023-02-15T11:54:49;101499.00;;;21.80
20289;BMP180;10303;51.960;8.372;2023-02-15T11:57:32;101495.00;;;22.00
20289;BMP180;10303;51.960;8.372;2023-02-15T12:00:10;101500.00;;;22.20
20289;BMP180;10303;51.960;8.372;2023-02-15T12:02:45;101489.00;;;22.40
20289;BMP180;10303;51.960;8.372;2023-02-15T12:05:17;101481.00;;;22.50
20289;BMP180;10303;51.960;8.372;2023-02-15T12:07:52;101484.00;;;22.60
20289;BMP180;10303;51.960;8.372;2023-02-15T12:10:26;101480.00;;;22.70
20289;BMP180;10303;51.960;8.372;2023-02-15T12:13:15;101482.00;;;22.80
20289;BMP180;10303;51.960;8.372;2023-02-15T12:15:46;101485.00;;;23.00
20289;BMP180;10303;51.960;8.372;2023-02-15T12:18:42;101482.00;;;23.10
20289;BMP180;10303;51.960;8.372;2023-02-15T12:21:11;101476.00;;;23.10
20289;BMP180;10303;51.960;8.372;2023-02-15T12:23:50;101472.00;;;23.20
20289;BMP180;10303;51.960;8.372;2023-02-15T12:26:29;101461.00;;;23.40
20289;BMP180;10303;51.960;8.372;2023-02-15T12:28:59;101461.00;;;23.50
20289;BMP180;10303;51.960;8.372;2023-02-15T12:31:40;101464.00;;;23.70
20289;BMP180;10303;51.960;8.372;2023-02-15T12:34:32;101456.00;;;23.80
20289;BMP180;10303;51.960;8.372;2023-02-15T12:37:09;101456.00;;;24.00
20289;BMP180;10303;51.960;8.372;2023-02-15T12:39:35;101440.00;;;24.00
20289;BMP180;10303;51.960;8.372;2023-02-15T12:42:05;101453.00;;;24.00
20289;BMP180;10303;51.960;8.372;2023-02-15T12:45:04;101444.00;;;24.00
20289;BMP180;10303;51.960;8.372;2023-02-15T12:47:44;101439.00;;;24.10
20289;BMP180;10303;51.960;8.372;2023-02-15T12:50:24;101439.00;;;24.10
20289;BMP180;10303;51.960;8.372;2023-02-15T12:53:13;101433.00;;;24.10
20289;BMP180;10303;51.960;8.372;2023-02-15T12:55:50;101431.00;;;24.20
20289;BMP180;10303;51.960;8.372;2023-02-15T12:58:17;101430.00;;;24.20
20289;BMP180;10303;51.960;8.372;2023-02-15T13:00:44;101431.00;;;24.20
20289;BMP180;10303;51.960;8.372;2023-02-15T13:03:21;101428.00;;;24.10
20289;BMP180;10303;51.960;8.372;2023-02-15T13:05:55;101428.00;;;24.00
20289;BMP180;10303;51.960;8.372;2023-02-15T13:08:30;101432.00;;;23.90
20289;BMP180;10303;51.960;8.372;2023-02-15T13:11:03;101426.00;;;23.90
20289;BMP180;10303;51.960;8.372;2023-02-15T13:13:50;101414.00;;;23.80
20289;BMP180;10303;51.960;8.372;2023-02-15T13:16:26;101418.00;;;23.70
20289;BMP180;10303;51.960;8.372;2023-02-15T13:18:54;101426.00;;;23.70
20289;BMP180;10303;51.960;8.372;2023-02-15T13:21:30;101423.00;;;23.60
20289;BMP180;10303;51.960;8.372;2023-02-15T13:24:05;101427.00;;;23.60
20289;BMP180;10303;51.960;8.372;2023-02-15T13:26:34;101426.00;;;23.60
20289;BMP180;10303;51.960;8.372;2023-02-15T13:29:36;101421.00;;;23.50
20289;BMP180;10303;51.960;8.372;2023-02-15T13:32:37;101419.00;;;23.40
20289;BMP180;10303;51.960;8.372;2023-02-15T13:35:05;101407.00;;;23.40
20289;BMP180;10303;51.960;8.372;2023-02-15T13:40:57;101399.00;;;23.30
20289;BMP180;10303;51.960;8.372;2023-02-15T13:43:56;101399.00;;;23.20
20289;BMP180;10303;51.960;8.372;2023-02-15T13:46:54;101401.00;;;23.10
20289;BMP180;10303;51.960;8.372;2023-02-15T13:52:28;101375.00;;;22.90
20289;BMP180;10303;51.960;8.372;2023-02-15T13:55:26;101384.00;;;22.80
20289;BMP180;10303;51.960;8.372;2023-02-15T13:58:37;101384.00;;;22.70
20289;BMP180;10303;51.960;8.372;2023-02-15T14:01:14;101372.00;;;22.50
20289;BMP180;10303;51.960;8.372;2023-02-15T14:15:07;101357.00;;;22.00
20289;BMP180;10303;51.960;8.372;2023-02-15T14:21:06;101352.00;;;21.80
20289;BMP180;10303;51.960;8.372;2023-02-15T14:29:54;101358.00;;;21.60
20289;BMP180;10303;51.960;8.372;2023-02-15T14:32:43;101351.00;;;21.50
20289;BMP180;10303;51.960;8.372;2023-02-15T14:35:23;101357.00;;;21.40
20289;BMP180;10303;51.960;8.372;2023-02-15T14:40:54;101351.00;;;21.20
20289;BMP180;10303;51.960;8.372;2023-02-15T14:43:45;101363.00;;;21.10
20289;BMP180;10303;51.960;8.372;2023-02-15T14:46:27;101359.00;;;21.00
20289;BMP180;10303;51.960;8.372;2023-02-15T14:49:13;101348.00;;;20.90
20289;BMP180;10303;51.960;8.372;2023-02-15T15:02:46;101339.00;;;20.50
20289;BMP180;10303;51.960;8.372;2023-02-15T15:05:24;101330.00;;;20.50
20289;BMP180;10303;51.960;8.372;2023-02-15T15:07:57;101333.00;;;20.40
20289;BMP180;10303;51.960;8.372;2023-02-15T15:10:42;101330.00;;;20.40
20289;BMP180;10303;51.960;8.372;2023-02-15T15:13:37;101327.00;;;20.40
20289;BMP180;10303;51.960;8.372;2023-02-15T15:19:09;101332.00;;;20.40
20289;BMP180;10303;51.960;8.372;2023-02-15T15:36:13;101321.00;;;19.90
20289;BMP180;10303;51.960;8.372;2023-02-15T15:42:38;101319.00;;;19.70
20289;BMP180;10303;51.960;8.372;2023-02-15T15:48:37;101317.00;;;19.50
20289;BMP180;10303;51.960;8.372;2023-02-15T15:51:33;101320.00;;;19.40
20289;BMP180;10303;51.960;8.372;2023-02-15T15:54:02;101314.00;;;19.30
20289;BMP180;10303;51.960;8.372;2023-02-15T15:56:33;101308.00;;;19.20
20289;BMP180;10303;51.960;8.372;2023-02-15T15:59:06;101313.00;;;19.10
20289;BMP180;10303;51.960;8.372;2023-02-15T16:01:41;101306.00;;;19.00
20289;BMP180;10303;51.960;8.372;2023-02-15T16:04:14;101303.00;;;18.80
20289;BMP180;10303;51.960;8.372;2023-02-15T16:06:47;101311.00;;;18.80
20289;BMP180;10303;51.960;8.372;2023-02-15T16:09:39;101307.00;;;18.60
20289;BMP180;10303;51.960;8.372;2023-02-15T16:12:14;101307.00;;;18.40
20289;BMP180;10303;51.960;8.372;2023-02-15T16:14:43;101302.00;;;18.40
20289;BMP180;10303;51.960;8.372;2023-02-15T16:17:27;101308.00;;;18.20
20289;BMP180;10303;51.960;8.372;2023-02-15T16:26:24;101307.00;;;17.80
20289;BMP180;10303;51.960;8.372;2023-02-15T16:28:55;101306.00;;;17.70
20289;BMP180;10303;51.960;8.372;2023-02-15T16:31:22;101304.00;;;17.50
20289;BMP180;10303;51.960;8.372;2023-02-15T16:33:52;101305.00;;;17.40
20289;BMP180;10303;51.960;8.372;2023-02-15T16:36:27;101296.00;;;17.30
20289;BMP180;10303;51.960;8.372;2023-02-15T16:41:26;101305.00;;;17.00
20289;BMP180;10303;51.960;8.372;2023-02-15T16:43:56;101297.00;;;16.90
20289;BMP180;10303;51.960;8.372;2023-02-15T16:46:47;101296.00;;;16.80
20289;BMP180;10303;51.960;8.372;2023-02-15T16:51:44;101292.00;;;16.60
20289;BMP180;10303;51.960;8.372;2023-02-15T16:54:22;101289.00;;;16.40
20289;BMP180;10303;51.960;8.372;2023-02-15T16:56:48;101294.00;;;16.30
20289;BMP180;10303;51.960;8.372;2023-02-15T16:59:30;101302.00;;;16.20
20289;BMP180;10303;51.960;8.372;2023-02-15T17:01:59;101299.00;;;16.10
20289;BMP180;10303;51.960;8.372;2023-02-15T17:04:30;101300.00;;;15.90
20289;BMP180;10303;51.960;8.372;2023-02-15T17:07:05;101306.00;;;15.70
20289;BMP180;10303;51.960;8.372;2023-02-15T17:09:33;101301.00;;;15.60
20289;BMP180;10303;51.960;8.372;2023-02-15T17:12:00;101306.00;;;15.50
20289;BMP180;10303;51.960;8.372;2023-02-15T17:14:30;101298.00;;;15.30
20289;BMP180;10303;51.960;8.372;2023-02-15T17:17:11;101309.00;;;15.10